sensor_id;sensor_type;location;lat;lon;timestamp;temperature;humidity
67868;SHT31;54672;46.096;14.470;2023-01-01T00:02:00;11.90;87.51
67868;SHT31;54672;46.096;14.470;2023-01-01T00:04:25;11.87;87.64
67868;SHT31;54672;46.096;14.470;2023-01-01T00:06:51;11.84;87.78
67868;SHT31;54672;46.096;14.470;2023-01-01T00:09:16;11.84;87.72
67868;SHT31;54672;46.096;14.470;2023-01-01T00:12:00;11.81;87.87
67868;SHT31;54672;46.096;14.470;2023-01-01T00:14:26;11.81;87.98
67868;SHT31;54672;46.096;14.470;2023-01-01T00:16:53;11.78;88.12
67868;SHT31;54672;46.096;14.470;2023-01-01T00:19:19;11.74;88.20
67868;SHT31;54672;46.096;14.470;2023-01-01T00:21:45;11.76;88.24
67868;SHT31;54672;46.096;14.470;2023-01-01T00:24:10;11.76;88.27
67868;SHT31;54672;46.096;14.470;2023-01-01T00:26:36;11.70;88.37
67868;SHT31;54672;46.096;14.470;2023-01-01T00:29:02;11.71;88.33
67868;SHT31;54672;46.096;14.470;2023-01-01T00:31:27;11.69;88.39
67868;SHT31;54672;46.096;14.470;2023-01-01T00:33:54;11.66;88.68
67868;SHT31;54672;46.096;14.470;2023-01-01T00:36:21;11.63;89.18
67868;SHT31;54672;46.096;14.470;2023-01-01T00:38:47;11.56;89.27
67868;SHT31;54672;46.096;14.470;2023-01-01T00:41:13;11.49;89.36
67868;SHT31;54672;46.096;14.470;2023-01-01T00:43:39;11.19;89.29
67868;SHT31;54672;46.096;14.470;2023-01-01T00:46:06;11.14;87.99
67868;SHT31;54672;46.096;14.470;2023-01-01T00:48:31;10.94;87.95
67868;SHT31;54672;46.096;14.470;2023-01-01T00:50:57;10.82;87.66
67868;SHT31;54672;46.096;14.470;2023-01-01T00:53:22;10.78;88.05
67868;SHT31;54672;46.096;14.470;2023-01-01T00:55:49;10.84;87.91
67868;SHT31;54672;46.096;14.470;2023-01-01T00:58:16;10.77;88.03
67868;SHT31;54672;46.096;14.470;2023-01-01T01:00:41;10.75;87.99
67868;SHT31;54672;46.096;14.470;2023-01-01T01:03:09;10.72;87.92
67868;SHT31;54672;46.096;14.470;2023-01-01T01:05:37;10.57;88.43
67868;SHT31;54672;46.096;14.470;2023-01-01T01:08:02;10.50;88.73
67868;SHT31;54672;46.096;14.470;2023-01-01T01:10:27;10.50;89.20
67868;SHT31;54672;46.096;14.470;2023-01-01T01:12:53;10.53;89.40
67868;SHT31;54672;46.096;14.470;2023-01-01T01:15:19;10.65;89.80
67868;SHT31;54672;46.096;14.470;2023-01-01T01:17:45;10.71;90.37
67868;SHT31;54672;46.096;14.470;2023-01-01T01:20:11;10.82;90.99
67868;SHT31;54672;46.096;14.470;2023-01-01T01:22:37;10.98;90.19
67868;SHT31;54672;46.096;14.470;2023-01-01T01:25:04;11.08;90.05
67868;SHT31;54672;46.096;14.470;2023-01-01T01:27:30;11.12;90.15
67868;SHT31;54672;46.096;14.470;2023-01-01T01:29:56;11.19;89.77
67868;SHT31;54672;46.096;14.470;2023-01-01T01:32:21;11.32;88.81
67868;SHT31;54672;46.096;14.470;2023-01-01T01:34:47;11.44;88.39
67868;SHT31;54672;46.096;14.470;2023-01-01T01:37:12;11.47;88.31
67868;SHT31;54672;46.096;14.470;2023-01-01T01:39:38;11.54;87.97
67868;SHT31;54672;46.096;14.470;2023-01-01T01:42:04;11.63;87.53
67868;SHT31;54672;46.096;14.470;2023-01-01T01:44:50;11.62;88.15
67868;SHT31;54672;46.096;14.470;2023-01-01T01:47:35;10.68;86.24
67868;SHT31;54672;46.096;14.470;2023-01-01T01:53:03;9.31;90.50
67868;SHT31;54672;46.096;14.470;2023-01-01T01:55:33;9.28;90.80
67868;SHT31;54672;46.096;14.470;2023-01-01T01:58:00;9.41;90.80
67868;SHT31;54672;46.096;14.470;2023-01-01T02:00:26;9.21;90.70
67868;SHT31;54672;46.096;14.470;2023-01-01T02:02:58;9.18;90.15
67868;SHT31;54672;46.096;14.470;2023-01-01T02:05:26;9.34;90.73
67868;SHT31;54672;46.096;14.470;2023-01-01T02:07:52;9.39;90.14
67868;SHT31;54672;46.096;14.470;2023-01-01T02:10:18;9.44;90.15
67868;SHT31;54672;46.096;14.470;2023-01-01T02:12:44;9.56;90.31
67868;SHT31;54672;46.096;14.470;2023-01-01T02:15:09;9.66;91.34
67868;SHT31;54672;46.096;14.470;2023-01-01T02:18:11;9.83;91.86
67868;SHT31;54672;46.096;14.470;2023-01-01T02:20:58;9.68;91.03
67868;SHT31;54672;46.096;14.470;2023-01-01T02:29:00;9.97;90.42
67868;SHT31;54672;46.096;14.470;2023-01-01T02:31:35;10.09;91.23
67868;SHT31;54672;46.096;14.470;2023-01-01T02:34:04;10.18;91.40
67868;SHT31;54672;46.096;14.470;2023-01-01T02:36:32;10.33;91.59
67868;SHT31;54672;46.096;14.470;2023-01-01T02:39:02;10.46;91.29
67868;SHT31;54672;46.096;14.470;2023-01-01T02:41:41;10.71;90.38
67868;SHT31;54672;46.096;14.470;2023-01-01T02:44:10;10.91;89.92
67868;SHT31;54672;46.096;14.470;2023-01-01T02:46:36;10.99;89.53
67868;SHT31;54672;46.096;14.470;2023-01-01T02:49:02;11.06;89.40
67868;SHT31;54672;46.096;14.470;2023-01-01T02:51:58;11.20;88.90
67868;SHT31;54672;46.096;14.470;2023-01-01T03:00:01;11.59;87.57
67868;SHT31;54672;46.096;14.470;2023-01-01T03:09:18;11.81;86.46
67868;SHT31;54672;46.096;14.470;2023-01-01T03:14:26;11.83;86.26
67868;SHT31;54672;46.096;14.470;2023-01-01T03:19:36;11.84;86.37
67868;SHT31;54672;46.096;14.470;2023-01-01T03:24:32;11.81;86.52
67868;SHT31;54672;46.096;14.470;2023-01-01T03:27:11;11.87;86.35
67868;SHT31;54672;46.096;14.470;2023-01-01T03:29:40;11.84;86.51
67868;SHT31;54672;46.096;14.470;2023-01-01T03:32:08;11.71;87.02
67868;SHT31;54672;46.096;14.470;2023-01-01T03:34:38;11.70;87.22
67868;SHT31;54672;46.096;14.470;2023-01-01T03:37:07;11.69;87.27
67868;SHT31;54672;46.096;14.470;2023-01-01T03:39:42;11.64;87.54
67868;SHT31;54672;46.096;14.470;2023-01-01T03:42:23;11.62;87.49
67868;SHT31;54672;46.096;14.470;2023-01-01T03:45:05;11.62;87.55
67868;SHT31;54672;46.096;14.470;2023-01-01T03:47:33;11.63;87.62
67868;SHT31;54672;46.096;14.470;2023-01-01T03:50:00;11.60;87.72
67868;SHT31;54672;46.096;14.470;2023-01-01T03:52:59;11.60;87.67
67868;SHT31;54672;46.096;14.470;2023-01-01T03:55:34;11.59;87.92
67868;SHT31;54672;46.096;14.470;2023-01-01T03:58:26;11.56;88.10
67868;SHT31;54672;46.096;14.470;2023-01-01T04:01:09;11.53;88.21
67868;SHT31;54672;46.096;14.470;2023-01-01T04:03:37;11.52;88.38
67868;SHT31;54672;46.096;14.470;2023-01-01T04:06:03;11.47;88.56
67868;SHT31;54672;46.096;14.470;2023-01-01T04:08:31;11.50;88.55
67868;SHT31;54672;46.096;14.470;2023-01-01T04:10:59;11.49;88.62
67868;SHT31;54672;46.096;14.470;2023-01-01T04:13:46;11.47;88.51
67868;SHT31;54672;46.096;14.470;2023-01-01T04:16:12;11.50;88.41
67868;SHT31;54672;46.096;14.470;2023-01-01T04:18:37;11.50;88.41
67868;SHT31;54672;46.096;14.470;2023-01-01T04:21:02;11.53;88.21
67868;SHT31;54672;46.096;14.470;2023-01-01T04:23:28;11.53;88.22
67868;SHT31;54672;46.096;14.470;2023-01-01T04:25:53;11.52;88.36
67868;SHT31;54672;46.096;14.470;2023-01-01T04:28:19;11.52;88.39
67868;SHT31;54672;46.096;14.470;2023-01-01T04:30:44;11.49;88.32
67868;SHT31;54672;46.096;14.470;2023-01-01T04:33:10;11.47;88.15
67868;SHT31;54672;46.096;14.470;2023-01-01T04:35:35;11.49;88.09
67868;SHT31;54672;46.096;14.470;2023-01-01T04:38:00;11.50;88.19
67868;SHT31;54672;46.096;14.470;2023-01-01T04:40:27;11.52;88.14
67868;SHT31;54672;46.096;14.470;2023-01-01T04:42:53;11.59;87.42
67868;SHT31;54672;46.096;14.470;2023-01-01T04:45:18;11.76;86.69
67868;SHT31;54672;46.096;14.470;2023-01-01T04:47:44;11.83;86.42
67868;SHT31;54672;46.096;14.470;2023-01-01T04:50:09;11.78;86.69
67868;SHT31;54672;46.096;14.470;2023-01-01T04:52:35;11.74;86.71
67868;SHT31;54672;46.096;14.470;2023-01-01T04:55:00;11.70;87.07
67868;SHT31;54672;46.096;14.470;2023-01-01T04:57:28;11.56;87.89
67868;SHT31;54672;46.096;14.470;2023-01-01T04:59:54;11.63;87.24
67868;SHT31;54672;46.096;14.470;2023-01-01T05:02:19;11.74;86.82
67868;SHT31;54672;46.096;14.470;2023-01-01T05:04:45;11.81;86.24
67868;SHT31;54672;46.096;14.470;2023-01-01T05:07:10;11.76;86.72
67868;SHT31;54672;46.096;14.470;2023-01-01T05:09:36;11.78;86.53
67868;SHT31;54672;46.096;14.470;2023-01-01T05:12:01;11.77;86.70
67868;SHT31;54672;46.096;14.470;2023-01-01T05:14:27;11.70;87.12
67868;SHT31;54672;46.096;14.470;2023-01-01T05:16:52;11.66;87.30
67868;SHT31;54672;46.096;14.470;2023-01-01T05:19:18;11.73;87.01
67868;SHT31;54672;46.096;14.470;2023-01-01T05:21:43;11.80;86.54
67868;SHT31;54672;46.096;14.470;2023-01-01T05:24:10;11.80;86.35
67868;SHT31;54672;46.096;14.470;2023-01-01T05:26:38;11.80;85.92
67868;SHT31;54672;46.096;14.470;2023-01-01T05:29:04;11.90;85.60
67868;SHT31;54672;46.096;14.470;2023-01-01T05:31:32;11.93;85.27
67868;SHT31;54672;46.096;14.470;2023-01-01T05:33:58;11.83;85.99
67868;SHT31;54672;46.096;14.470;2023-01-01T05:36:30;11.73;86.36
67868;SHT31;54672;46.096;14.470;2023-01-01T05:38:56;11.80;86.10
67868;SHT31;54672;46.096;14.470;2023-01-01T05:41:22;11.83;85.72
67868;SHT31;54672;46.096;14.470;2023-01-01T05:43:49;11.80;85.95
67868;SHT31;54672;46.096;14.470;2023-01-01T05:46:19;11.77;85.93
67868;SHT31;54672;46.096;14.470;2023-01-01T05:48:45;11.80;86.24
67868;SHT31;54672;46.096;14.470;2023-01-01T05:51:17;11.85;85.70
67868;SHT31;54672;46.096;14.470;2023-01-01T05:53:42;11.78;85.88
67868;SHT31;54672;46.096;14.470;2023-01-01T05:56:12;11.81;85.98
67868;SHT31;54672;46.096;14.470;2023-01-01T05:58:38;11.80;86.06
67868;SHT31;54672;46.096;14.470;2023-01-01T06:01:16;11.74;86.26
67868;SHT31;54672;46.096;14.470;2023-01-01T06:03:42;11.76;86.11
67868;SHT31;54672;46.096;14.470;2023-01-01T06:06:13;11.64;86.66
67868;SHT31;54672;46.096;14.470;2023-01-01T06:08:39;11.74;86.01
67868;SHT31;54672;46.096;14.470;2023-01-01T06:11:06;11.74;86.16
67868;SHT31;54672;46.096;14.470;2023-01-01T06:13:33;11.80;85.91
67868;SHT31;54672;46.096;14.470;2023-01-01T06:16:00;11.64;86.46
67868;SHT31;54672;46.096;14.470;2023-01-01T06:18:28;11.60;87.33
67868;SHT31;54672;46.096;14.470;2023-01-01T06:20:54;11.59;86.94
67868;SHT31;54672;46.096;14.470;2023-01-01T06:23:19;11.73;86.36
67868;SHT31;54672;46.096;14.470;2023-01-01T06:25:45;11.70;86.67
67868;SHT31;54672;46.096;14.470;2023-01-01T06:28:10;11.71;86.31
67868;SHT31;54672;46.096;14.470;2023-01-01T06:30:36;11.76;86.19
67868;SHT31;54672;46.096;14.470;2023-01-01T06:33:03;11.77;86.01
67868;SHT31;54672;46.096;14.470;2023-01-01T06:35:29;11.74;86.63
67868;SHT31;54672;46.096;14.470;2023-01-01T06:37:54;11.77;86.36
67868;SHT31;54672;46.096;14.470;2023-01-01T06:40:20;11.69;86.61
67868;SHT31;54672;46.096;14.470;2023-01-01T06:42:45;11.81;86.09
67868;SHT31;54672;46.096;14.470;2023-01-01T06:45:11;11.78;86.10
67868;SHT31;54672;46.096;14.470;2023-01-01T06:47:37;11.77;86.00
67868;SHT31;54672;46.096;14.470;2023-01-01T06:50:04;11.73;86.39
67868;SHT31;54672;46.096;14.470;2023-01-01T06:52:30;11.73;86.29
67868;SHT31;54672;46.096;14.470;2023-01-01T06:54:55;11.73;86.14
67868;SHT31;54672;46.096;14.470;2023-01-01T06:57:21;11.77;86.15
67868;SHT31;54672;46.096;14.470;2023-01-01T06:59:46;11.80;86.04
67868;SHT31;54672;46.096;14.470;2023-01-01T07:02:11;11.81;85.76
67868;SHT31;54672;46.096;14.470;2023-01-01T07:04:37;11.83;85.93
67868;SHT31;54672;46.096;14.470;2023-01-01T07:07:03;11.85;85.70
67868;SHT31;54672;46.096;14.470;2023-01-01T07:09:28;11.87;85.61
67868;SHT31;54672;46.096;14.470;2023-01-01T07:11:54;11.83;86.35
67868;SHT31;54672;46.096;14.470;2023-01-01T07:14:19;11.74;86.25
67868;SHT31;54672;46.096;14.470;2023-01-01T07:16:45;11.78;86.21
67868;SHT31;54672;46.096;14.470;2023-01-01T07:19:10;11.84;85.87
67868;SHT31;54672;46.096;14.470;2023-01-01T07:21:43;11.80;86.06
67868;SHT31;54672;46.096;14.470;2023-01-01T07:24:09;11.80;86.09
67868;SHT31;54672;46.096;14.470;2023-01-01T07:26:35;11.81;86.31
67868;SHT31;54672;46.096;14.470;2023-01-01T07:29:01;11.81;86.20
67868;SHT31;54672;46.096;14.470;2023-01-01T07:31:26;11.85;86.14
67868;SHT31;54672;46.096;14.470;2023-01-01T07:33:51;11.80;86.24
67868;SHT31;54672;46.096;14.470;2023-01-01T07:36:17;11.88;86.18
67868;SHT31;54672;46.096;14.470;2023-01-01T07:38:42;11.88;86.05
67868;SHT31;54672;46.096;14.470;2023-01-01T07:41:08;11.88;86.07
67868;SHT31;54672;46.096;14.470;2023-01-01T07:43:33;11.90;86.21
67868;SHT31;54672;46.096;14.470;2023-01-01T07:45:59;11.91;86.24
67868;SHT31;54672;46.096;14.470;2023-01-01T07:48:24;11.90;86.27
67868;SHT31;54672;46.096;14.470;2023-01-01T07:50:50;11.93;86.33
67868;SHT31;54672;46.096;14.470;2023-01-01T07:53:16;11.97;85.80
67868;SHT31;54672;46.096;14.470;2023-01-01T07:55:42;11.93;86.08
67868;SHT31;54672;46.096;14.470;2023-01-01T07:58:08;11.94;86.14
67868;SHT31;54672;46.096;14.470;2023-01-01T08:00:35;11.99;86.05
67868;SHT31;54672;46.096;14.470;2023-01-01T08:03:01;12.02;85.69
67868;SHT31;54672;46.096;14.470;2023-01-01T08:05:26;12.07;85.51
67868;SHT31;54672;46.096;14.470;2023-01-01T08:07:52;12.13;85.46
67868;SHT31;54672;46.096;14.470;2023-01-01T08:10:18;12.17;85.28
67868;SHT31;54672;46.096;14.470;2023-01-01T08:12:46;12.17;85.20
67868;SHT31;54672;46.096;14.470;2023-01-01T08:15:12;12.25;85.04
67868;SHT31;54672;46.096;14.470;2023-01-01T08:17:38;12.36;84.40
67868;SHT31;54672;46.096;14.470;2023-01-01T08:20:05;12.42;84.37
67868;SHT31;54672;46.096;14.470;2023-01-01T08:22:31;12.45;84.14
67868;SHT31;54672;46.096;14.470;2023-01-01T08:24:56;12.46;84.36
67868;SHT31;54672;46.096;14.470;2023-01-01T08:27:22;12.46;84.37
67868;SHT31;54672;46.096;14.470;2023-01-01T08:29:47;12.49;83.94
67868;SHT31;54672;46.096;14.470;2023-01-01T08:32:13;12.55;84.12
67868;SHT31;54672;46.096;14.470;2023-01-01T08:34:39;12.63;83.69
67868;SHT31;54672;46.096;14.470;2023-01-01T08:37:04;12.62;83.79
67868;SHT31;54672;46.096;14.470;2023-01-01T08:39:30;12.60;83.98
67868;SHT31;54672;46.096;14.470;2023-01-01T08:41:55;12.75;83.67
67868;SHT31;54672;46.096;14.470;2023-01-01T08:44:21;12.69;83.60
67868;SHT31;54672;46.096;14.470;2023-01-01T08:46:47;12.69;83.72
67868;SHT31;54672;46.096;14.470;2023-01-01T08:49:12;12.69;83.65
67868;SHT31;54672;46.096;14.470;2023-01-01T08:51:37;12.66;83.94
67868;SHT31;54672;46.096;14.470;2023-01-01T08:54:03;12.62;84.11
67868;SHT31;54672;46.096;14.470;2023-01-01T08:56:29;12.65;83.88
67868;SHT31;54672;46.096;14.470;2023-01-01T08:58:54;12.82;83.39
67868;SHT31;54672;46.096;14.470;2023-01-01T09:01:19;12.97;82.73
67868;SHT31;54672;46.096;14.470;2023-01-01T09:03:46;12.97;82.82
67868;SHT31;54672;46.096;14.470;2023-01-01T09:06:12;13.14;82.36
67868;SHT31;54672;46.096;14.470;2023-01-01T09:08:38;13.21;82.31
67868;SHT31;54672;46.096;14.470;2023-01-01T09:11:03;13.14;82.14
67868;SHT31;54672;46.096;14.470;2023-01-01T09:13:30;13.35;81.78
67868;SHT31;54672;46.096;14.470;2023-01-01T09:15:55;13.40;81.54
67868;SHT31;54672;46.096;14.470;2023-01-01T09:18:21;13.69;80.90
67868;SHT31;54672;46.096;14.470;2023-01-01T09:20:47;13.87;80.14
67868;SHT31;54672;46.096;14.470;2023-01-01T09:23:12;13.78;80.06
67868;SHT31;54672;46.096;14.470;2023-01-01T09:25:38;13.64;80.44
67868;SHT31;54672;46.096;14.470;2023-01-01T09:28:06;13.54;81.02
67868;SHT31;54672;46.096;14.470;2023-01-01T09:30:33;13.48;81.10
67868;SHT31;54672;46.096;14.470;2023-01-01T09:33:00;13.54;80.85
67868;SHT31;54672;46.096;14.470;2023-01-01T09:35:25;13.54;81.15
67868;SHT31;54672;46.096;14.470;2023-01-01T09:37:51;13.43;81.49
67868;SHT31;54672;46.096;14.470;2023-01-01T09:48:20;13.55;80.84
67868;SHT31;54672;46.096;14.470;2023-01-01T09:50:46;13.53;81.06
67868;SHT31;54672;46.096;14.470;2023-01-01T09:53:16;13.66;80.80
67868;SHT31;54672;46.096;14.470;2023-01-01T09:55:46;13.55;80.85
67868;SHT31;54672;46.096;14.470;2023-01-01T09:58:13;13.54;81.12
67868;SHT31;54672;46.096;14.470;2023-01-01T10:00:41;13.55;80.67
67868;SHT31;54672;46.096;14.470;2023-01-01T10:03:34;13.64;80.43
67868;SHT31;54672;46.096;14.470;2023-01-01T10:14:35;13.92;79.10
67868;SHT31;54672;46.096;14.470;2023-01-01T10:17:07;13.98;78.82
67868;SHT31;54672;46.096;14.470;2023-01-01T10:19:40;14.12;78.24
67868;SHT31;54672;46.096;14.470;2023-01-01T10:22:14;14.01;78.58
67868;SHT31;54672;46.096;14.470;2023-01-01T10:27:30;14.09;78.36
67868;SHT31;54672;46.096;14.470;2023-01-01T10:29:56;14.30;77.76
67868;SHT31;54672;46.096;14.470;2023-01-01T10:32:28;14.46;77.25
67868;SHT31;54672;46.096;14.470;2023-01-01T10:34:54;14.64;76.95
67868;SHT31;54672;46.096;14.470;2023-01-01T10:37:21;14.46;76.82
67868;SHT31;54672;46.096;14.470;2023-01-01T10:39:47;14.53;76.80
67868;SHT31;54672;46.096;14.470;2023-01-01T10:42:13;14.61;76.44
67868;SHT31;54672;46.096;14.470;2023-01-01T10:44:40;14.57;76.53
67868;SHT31;54672;46.096;14.470;2023-01-01T10:47:28;14.77;76.68
67868;SHT31;54672;46.096;14.470;2023-01-01T10:49:58;14.64;76.41
67868;SHT31;54672;46.096;14.470;2023-01-01T10:52:39;14.68;76.10
67868;SHT31;54672;46.096;14.470;2023-01-01T10:55:07;14.80;75.56
67868;SHT31;54672;46.096;14.470;2023-01-01T10:57:43;14.95;75.36
67868;SHT31;54672;46.096;14.470;2023-01-01T11:02:34;14.89;75.61
67868;SHT31;54672;46.096;14.470;2023-01-01T11:05:17;15.19;74.73
67868;SHT31;54672;46.096;14.470;2023-01-01T11:07:43;15.28;74.30
67868;SHT31;54672;46.096;14.470;2023-01-01T11:10:18;15.22;74.40
67868;SHT31;54672;46.096;14.470;2023-01-01T11:12:44;15.21;74.65
67868;SHT31;54672;46.096;14.470;2023-01-01T11:15:21;15.08;74.51
67868;SHT31;54672;46.096;14.470;2023-01-01T11:17:47;15.04;74.80
67868;SHT31;54672;46.096;14.470;2023-01-01T11:20:18;15.11;74.71
67868;SHT31;54672;46.096;14.470;2023-01-01T11:22:47;14.95;74.97
67868;SHT31;54672;46.096;14.470;2023-01-01T11:25:30;14.70;75.35
67868;SHT31;54672;46.096;14.470;2023-01-01T11:31:09;14.51;76.25
67868;SHT31;54672;46.096;14.470;2023-01-01T11:33:41;14.44;76.96
67868;SHT31;54672;46.096;14.470;2023-01-01T11:36:08;14.60;76.38
67868;SHT31;54672;46.096;14.470;2023-01-01T11:38:33;14.53;76.68
67868;SHT31;54672;46.096;14.470;2023-01-01T11:41:04;14.71;75.93
67868;SHT31;54672;46.096;14.470;2023-01-01T11:43:37;14.47;76.60
67868;SHT31;54672;46.096;14.470;2023-01-01T11:46:07;14.47;76.72
67868;SHT31;54672;46.096;14.470;2023-01-01T11:48:33;14.53;76.48
67868;SHT31;54672;46.096;14.470;2023-01-01T11:51:00;14.57;76.18
67868;SHT31;54672;46.096;14.470;2023-01-01T11:53:32;14.80;75.86
67868;SHT31;54672;46.096;14.470;2023-01-01T11:56:16;14.80;75.74
67868;SHT31;54672;46.096;14.470;2023-01-01T12:01:28;14.88;75.18
67868;SHT31;54672;46.096;14.470;2023-01-01T12:06:29;14.65;75.76
67868;SHT31;54672;46.096;14.470;2023-01-01T12:09:05;14.60;76.06
67868;SHT31;54672;46.096;14.470;2023-01-01T12:11:44;14.47;76.74
67868;SHT31;54672;46.096;14.470;2023-01-01T12:16:58;14.13;78.07
67868;SHT31;54672;46.096;14.470;2023-01-01T12:19:41;14.09;77.71
67868;SHT31;54672;46.096;14.470;2023-01-01T12:22:12;14.06;78.01
67868;SHT31;54672;46.096;14.470;2023-01-01T12:24:39;13.96;78.53
67868;SHT31;54672;46.096;14.470;2023-01-01T12:41:35;13.40;80.57
67868;SHT31;54672;46.096;14.470;2023-01-01T12:47:03;13.23;81.22
67868;SHT31;54672;46.096;14.470;2023-01-01T12:49:42;13.14;81.31
67868;SHT31;54672;46.096;14.470;2023-01-01T13:00:13;13.00;81.85
67868;SHT31;54672;46.096;14.470;2023-01-01T13:03:20;13.00;81.89
67868;SHT31;54672;46.096;14.470;2023-01-01T13:05:53;12.92;82.28
67868;SHT31;54672;46.096;14.470;2023-01-01T13:08:20;12.96;82.27
67868;SHT31;54672;46.096;14.470;2023-01-01T13:10:50;12.86;82.62
67868;SHT31;54672;46.096;14.470;2023-01-01T13:13:16;12.89;82.47
67868;SHT31;54672;46.096;14.470;2023-01-01T13:15:51;12.86;82.73
67868;SHT31;54672;46.096;14.470;2023-01-01T13:23:59;12.73;83.21
67868;SHT31;54672;46.096;14.470;2023-01-01T13:37:27;12.55;84.25
67868;SHT31;54672;46.096;14.470;2023-01-01T13:39:56;12.60;84.06
67868;SHT31;54672;46.096;14.470;2023-01-01T13:42:44;12.62;84.06
67868;SHT31;54672;46.096;14.470;2023-01-01T13:45:25;12.69;83.76
67868;SHT31;54672;46.096;14.470;2023-01-01T13:56:23;12.75;84.06
67868;SHT31;54672;46.096;14.470;2023-01-01T14:04:35;12.79;84.27
67868;SHT31;54672;46.096;14.470;2023-01-01T14:07:15;12.76;84.36
67868;SHT31;54672;46.096;14.470;2023-01-01T14:09:42;12.65;84.98
67868;SHT31;54672;46.096;14.470;2023-01-01T14:12:18;12.60;85.11
67868;SHT31;54672;46.096;14.470;2023-01-01T14:14:44;12.55;85.22
67868;SHT31;54672;46.096;14.470;2023-01-01T14:17:13;12.52;85.15
67868;SHT31;54672;46.096;14.470;2023-01-01T14:19:40;12.48;85.31
67868;SHT31;54672;46.096;14.470;2023-01-01T14:22:10;12.48;85.20
67868;SHT31;54672;46.096;14.470;2023-01-01T14:24:42;12.46;85.36
67868;SHT31;54672;46.096;14.470;2023-01-01T14:27:15;12.44;85.51
67868;SHT31;54672;46.096;14.470;2023-01-01T14:29:45;12.41;85.57
67868;SHT31;54672;46.096;14.470;2023-01-01T14:32:17;12.35;85.59
67868;SHT31;54672;46.096;14.470;2023-01-01T14:34:46;12.35;85.67
67868;SHT31;54672;46.096;14.470;2023-01-01T14:37:21;12.29;85.88
67868;SHT31;54672;46.096;14.470;2023-01-01T14:40:07;12.29;85.86
67868;SHT31;54672;46.096;14.470;2023-01-01T14:42:35;12.29;85.73
67868;SHT31;54672;46.096;14.470;2023-01-01T14:45:00;12.25;85.83
67868;SHT31;54672;46.096;14.470;2023-01-01T14:47:32;12.25;85.90
67868;SHT31;54672;46.096;14.470;2023-01-01T14:50:26;12.20;86.17
67868;SHT31;54672;46.096;14.470;2023-01-01T14:53:00;12.17;86.30
67868;SHT31;54672;46.096;14.470;2023-01-01T14:55:31;12.08;86.44
67868;SHT31;54672;46.096;14.470;2023-01-01T14:57:59;12.07;86.60
67868;SHT31;54672;46.096;14.470;2023-01-01T15:00:28;12.02;86.76
67868;SHT31;54672;46.096;14.470;2023-01-01T15:02:54;12.01;86.87
67868;SHT31;54672;46.096;14.470;2023-01-01T15:05:30;11.98;86.97
67868;SHT31;54672;46.096;14.470;2023-01-01T15:07:58;11.94;87.01
67868;SHT31;54672;46.096;14.470;2023-01-01T15:10:29;11.87;87.16
67868;SHT31;54672;46.096;14.470;2023-01-01T15:12:58;11.80;87.44
67868;SHT31;54672;46.096;14.470;2023-01-01T15:15:41;11.78;87.47
67868;SHT31;54672;46.096;14.470;2023-01-01T15:18:33;11.76;87.68
67868;SHT31;54672;46.096;14.470;2023-01-01T15:20:53;11.67;88.03
67868;SHT31;54672;46.096;14.470;2023-01-01T15:23:19;11.59;88.52
67868;SHT31;54672;46.096;14.470;2023-01-01T15:25:45;11.50;88.88
67868;SHT31;54672;46.096;14.470;2023-01-01T15:28:18;11.42;89.27
67868;SHT31;54672;46.096;14.470;2023-01-01T15:30:51;11.33;89.62
67868;SHT31;54672;46.096;14.470;2023-01-01T15:33:18;11.29;89.92
67868;SHT31;54672;46.096;14.470;2023-01-01T15:35:51;11.22;90.27
67868;SHT31;54672;46.096;14.470;2023-01-01T15:38:26;11.18;90.34
67868;SHT31;54672;46.096;14.470;2023-01-01T15:41:50;11.12;90.48
67868;SHT31;54672;46.096;14.470;2023-01-01T15:44:32;11.12;90.42
67868;SHT31;54672;46.096;14.470;2023-01-01T15:47:14;11.12;90.59
67868;SHT31;54672;46.096;14.470;2023-01-01T15:49:40;11.11;90.57
67868;SHT31;54672;46.096;14.470;2023-01-01T15:52:15;11.18;90.38
67868;SHT31;54672;46.096;14.470;2023-01-01T15:54:44;11.20;90.37
67868;SHT31;54672;46.096;14.470;2023-01-01T15:57:19;11.25;90.20
67868;SHT31;54672;46.096;14.470;2023-01-01T15:59:46;11.37;89.36
67868;SHT31;54672;46.096;14.470;2023-01-01T16:02:29;11.43;88.97
67868;SHT31;54672;46.096;14.470;2023-01-01T16:04:55;11.46;88.97
67868;SHT31;54672;46.096;14.470;2023-01-01T16:07:23;11.40;88.89
67868;SHT31;54672;46.096;14.470;2023-01-01T16:09:50;11.42;88.79
67868;SHT31;54672;46.096;14.470;2023-01-01T16:12:16;11.43;88.92
67868;SHT31;54672;46.096;14.470;2023-01-01T16:14:42;11.39;88.99
67868;SHT31;54672;46.096;14.470;2023-01-01T16:17:13;11.44;88.81
67868;SHT31;54672;46.096;14.470;2023-01-01T16:19:40;11.47;88.36
67868;SHT31;54672;46.096;14.470;2023-01-01T16:22:06;11.49;88.50
67868;SHT31;54672;46.096;14.470;2023-01-01T16:24:33;11.46;88.75
67868;SHT31;54672;46.096;14.470;2023-01-01T16:26:59;11.42;88.83
67868;SHT31;54672;46.096;14.470;2023-01-01T16:29:25;11.33;89.12
67868;SHT31;54672;46.096;14.470;2023-01-01T16:31:50;11.30;89.23
67868;SHT31;54672;46.096;14.470;2023-01-01T16:34:16;11.25;89.39
67868;SHT31;54672;46.096;14.470;2023-01-01T16:36:42;11.26;89.42
67868;SHT31;54672;46.096;14.470;2023-01-01T16:39:08;11.22;89.53
67868;SHT31;54672;46.096;14.470;2023-01-01T16:41:34;11.18;89.65
67868;SHT31;54672;46.096;14.470;2023-01-01T16:43:59;11.15;89.77
67868;SHT31;54672;46.096;14.470;2023-01-01T16:46:25;11.14;89.92
67868;SHT31;54672;46.096;14.470;2023-01-01T16:48:52;11.15;89.96
67868;SHT31;54672;46.096;14.470;2023-01-01T16:51:19;11.12;89.95
67868;SHT31;54672;46.096;14.470;2023-01-01T16:53:46;11.09;90.15
67868;SHT31;54672;46.096;14.470;2023-01-01T16:56:11;11.06;90.28
67868;SHT31;54672;46.096;14.470;2023-01-01T16:58:38;11.09;90.22
67868;SHT31;54672;46.096;14.470;2023-01-01T17:01:03;11.11;90.24
67868;SHT31;54672;46.096;14.470;2023-01-01T17:03:29;11.06;90.15
67868;SHT31;54672;46.096;14.470;2023-01-01T17:05:54;11.14;89.98
67868;SHT31;54672;46.096;14.470;2023-01-01T17:08:20;11.15;89.85
67868;SHT31;54672;46.096;14.470;2023-01-01T17:10:45;11.19;89.79
67868;SHT31;54672;46.096;14.470;2023-01-01T17:13:11;11.16;89.82
67868;SHT31;54672;46.096;14.470;2023-01-01T17:15:36;11.20;89.65
67868;SHT31;54672;46.096;14.470;2023-01-01T17:18:01;11.19;89.63
67868;SHT31;54672;46.096;14.470;2023-01-01T17:20:27;11.20;89.59
67868;SHT31;54672;46.096;14.470;2023-01-01T17:22:52;11.22;89.52
67868;SHT31;54672;46.096;14.470;2023-01-01T17:25:18;11.23;89.39
67868;SHT31;54672;46.096;14.470;2023-01-01T17:27:43;11.26;89.42